createdAt,value
2023-01-06T00:01:07.538Z,1.50
2023-01-06T00:04:00.424Z,1.30
2023-01-06T00:06:45.952Z,1.50
2023-01-06T00:09:31.515Z,1.15
2023-01-06T00:12:16.648Z,1.48
2023-01-06T00:15:01.938Z,1.20
2023-01-06T00:17:47.057Z,1.30
2023-01-06T00:20:34.135Z,1.20
2023-01-06T00:23:19.414Z,1.17
2023-01-06T00:26:06.058Z,1.15
2023-01-06T00:28:56.315Z,1.20
2023-01-06T00:31:44.085Z,1.25
2023-01-06T00:34:29.601Z,1.27
2023-01-06T00:37:15.002Z,1.38
2023-01-06T00:40:00.186Z,1.30
2023-01-06T00:42:45.094Z,1.40
2023-01-06T00:45:31.197Z,1.52
2023-01-06T00:48:17.741Z,1.05
2023-01-06T00:51:02.885Z,1.25
2023-01-06T00:53:50.356Z,1.20
2023-01-06T00:56:37.551Z,1.20
2023-01-06T00:59:24.677Z,1.20
2023-01-06T01:02:10.232Z,1.25
2023-01-06T01:04:55.659Z,1.05
2023-01-06T01:07:41.102Z,1.30
2023-01-06T01:10:26.574Z,1.30
2023-01-06T01:13:11.471Z,1.20
2023-01-06T01:15:56.720Z,1.48
2023-01-06T01:18:41.873Z,1.02
2023-01-06T01:21:27.146Z,0.90
2023-01-06T01:24:12.421Z,1.57
2023-01-06T01:26:58.684Z,1.17
2023-01-06T01:29:43.721Z,1.10
2023-01-06T01:32:28.788Z,1.02
2023-01-06T01:35:14.207Z,1.23
2023-01-06T01:37:59.391Z,0.80
2023-01-06T01:40:49.296Z,0.95
2023-01-06T01:43:49.733Z,1.10
2023-01-06T01:46:43.960Z,1.10
2023-01-06T01:49:32.556Z,1.05
2023-01-06T01:52:20.117Z,1.30
2023-01-06T01:55:06.865Z,1.20
2023-01-06T01:57:58.766Z,1.00
2023-01-06T02:00:44.998Z,1.20
2023-01-06T02:03:30.227Z,1.20
2023-01-06T02:06:22.660Z,1.10
2023-01-06T02:09:19.115Z,0.98
2023-01-06T02:12:05.020Z,1.30
2023-01-06T02:14:50.268Z,1.23
2023-01-06T02:18:00.421Z,1.00
2023-01-06T02:21:15.269Z,1.53
2023-01-06T02:24:10.913Z,0.90
2023-01-06T02:27:14.823Z,1.15
2023-01-06T02:30:05.638Z,1.05
2023-01-06T02:33:15.348Z,1.38
2023-01-06T02:36:11.783Z,1.27
2023-01-06T02:39:07.219Z,1.27
2023-01-06T02:42:13.270Z,1.20
2023-01-06T02:45:23.179Z,1.20
2023-01-06T02:48:20.674Z,1.08
2023-01-06T02:51:24.107Z,1.03
2023-01-06T02:54:27.462Z,0.95
2023-01-06T02:57:26.155Z,1.05
2023-01-06T03:00:22.144Z,0.98
2023-01-06T03:03:16.937Z,1.00
2023-01-06T03:06:13.561Z,0.80
2023-01-06T03:09:00.618Z,1.10
2023-01-06T03:11:50.713Z,0.95
2023-01-06T03:14:45.738Z,1.08
2023-01-06T03:17:31.339Z,1.00
2023-01-06T03:20:16.813Z,1.10
2023-01-06T03:23:02.588Z,1.00
2023-01-06T03:25:48.676Z,1.15
2023-01-06T03:28:33.823Z,0.80
2023-01-06T03:31:32.297Z,0.90
2023-01-06T03:34:44.179Z,1.00
2023-01-06T03:37:46.326Z,1.00
2023-01-06T03:40:34.648Z,0.93
2023-01-06T03:43:35.692Z,0.90
2023-01-06T03:46:38.919Z,0.85
2023-01-06T03:49:33.124Z,0.80
2023-01-06T03:52:26.945Z,1.10
2023-01-06T03:55:18.097Z,0.90
2023-01-06T03:58:07.028Z,0.82
2023-01-06T04:00:53.908Z,1.10
2023-01-06T04:03:39.772Z,0.80
2023-01-06T04:06:25.512Z,1.08
2023-01-06T04:09:11.175Z,1.00
2023-01-06T04:12:15.472Z,0.85
2023-01-06T04:15:01.883Z,0.80
2023-01-06T04:17:48.198Z,0.90
2023-01-06T04:20:35.213Z,0.70
2023-01-06T04:23:33.908Z,1.00
2023-01-06T04:26:23.609Z,1.10
2023-01-06T04:29:09.473Z,0.90
2023-01-06T04:31:56.283Z,0.90
2023-01-06T04:34:41.502Z,0.90
2023-01-06T04:37:27.043Z,1.00
2023-01-06T04:40:12.554Z,1.00
2023-01-06T04:43:07.090Z,1.00
2023-01-06T04:45:52.733Z,1.17
2023-01-06T04:48:37.865Z,0.70
2023-01-06T04:51:23.196Z,0.70
2023-01-06T04:54:08.498Z,0.98
2023-01-06T04:56:54.080Z,0.80
2023-01-06T04:59:39.211Z,0.70
2023-01-06T05:02:24.298Z,0.90
2023-01-06T05:05:09.937Z,0.90
2023-01-06T05:07:55.543Z,0.77
2023-01-06T05:10:40.707Z,0.90
2023-01-06T05:13:25.751Z,0.67
2023-01-06T05:16:16.355Z,0.80
2023-01-06T05:19:02.121Z,0.75
2023-01-06T05:21:47.166Z,0.70
2023-01-06T05:24:32.280Z,0.60
2023-01-06T05:27:17.299Z,0.90
2023-01-06T05:30:02.505Z,0.90
2023-01-06T05:32:47.552Z,0.88
2023-01-06T05:35:32.698Z,1.00
2023-01-06T05:38:18.007Z,1.00
2023-01-06T05:41:03.329Z,0.80
2023-01-06T05:43:48.893Z,0.70
2023-01-06T05:46:34.195Z,0.77
2023-01-06T05:49:19.516Z,0.90
2023-01-06T05:52:04.666Z,0.90
2023-01-06T05:54:49.991Z,0.73
2023-01-06T05:57:36.030Z,0.70
2023-01-06T06:00:20.976Z,0.73
2023-01-06T06:03:06.088Z,0.70
2023-01-06T06:05:51.348Z,0.90
2023-01-06T06:08:36.418Z,0.80
2023-01-06T06:11:22.433Z,0.90
2023-01-06T06:14:10.604Z,0.90
2023-01-06T06:16:56.176Z,1.10
2023-01-06T06:19:41.257Z,0.70
2023-01-06T06:22:26.394Z,0.90
2023-01-06T06:25:11.662Z,0.88
2023-01-06T06:27:59.899Z,0.90
2023-01-06T06:30:45.143Z,0.80
2023-01-06T06:33:29.957Z,1.17
2023-01-06T06:36:17.952Z,0.90
2023-01-06T06:39:02.991Z,0.90
2023-01-06T06:41:48.075Z,0.95
2023-01-06T06:44:33.106Z,0.80
2023-01-06T06:47:18.212Z,0.80
2023-01-06T06:50:03.769Z,0.90
2023-01-06T06:52:49.079Z,0.80
2023-01-06T06:55:34.590Z,0.90
2023-01-06T06:58:19.704Z,0.80
2023-01-06T07:01:09.550Z,0.85
2023-01-06T07:03:54.752Z,0.80
2023-01-06T07:06:39.868Z,1.00
2023-01-06T07:09:25.168Z,1.05
2023-01-06T07:12:10.488Z,1.00
2023-01-06T07:14:55.763Z,0.90
2023-01-06T07:17:41.879Z,0.73
2023-01-06T07:20:27.774Z,0.85
2023-01-06T07:23:13.178Z,1.10
2023-01-06T07:26:01.469Z,0.70
2023-01-06T07:28:46.627Z,0.90
2023-01-06T07:31:32.036Z,0.80
2023-01-06T07:34:17.356Z,1.00
2023-01-06T07:37:02.551Z,1.20
2023-01-06T07:39:47.844Z,0.80
2023-01-06T07:42:33.204Z,0.90
2023-01-06T07:45:18.450Z,1.20
2023-01-06T07:48:04.628Z,0.70
2023-01-06T07:50:49.630Z,1.05
2023-01-06T07:53:35.419Z,1.00
2023-01-06T07:56:21.796Z,0.98
2023-01-06T07:59:07.026Z,0.80
2023-01-06T08:01:52.356Z,0.88
2023-01-06T08:04:37.556Z,1.00
2023-01-06T08:07:22.856Z,0.80
2023-01-06T08:10:08.604Z,0.95
2023-01-06T08:12:53.487Z,0.80
2023-01-06T08:15:40.182Z,0.80
2023-01-06T08:18:25.303Z,1.00
2023-01-06T08:21:11.302Z,0.95
2023-01-06T08:23:56.227Z,0.90
2023-01-06T08:26:41.515Z,1.10
2023-01-06T08:29:26.787Z,0.70
2023-01-06T08:32:12.100Z,0.85
2023-01-06T08:34:57.424Z,0.70
2023-01-06T08:37:42.670Z,1.00
2023-01-06T08:40:28.033Z,0.70
2023-01-06T08:43:13.347Z,1.00
2023-01-06T08:46:04.403Z,0.80
2023-01-06T08:48:49.601Z,1.00
2023-01-06T08:51:35.696Z,0.80
2023-01-06T08:54:21.212Z,0.77
2023-01-06T08:57:08.311Z,0.82
2023-01-06T08:59:54.033Z,1.05
2023-01-06T09:02:39.278Z,1.02
2023-01-06T09:05:24.520Z,0.82
2023-01-06T09:08:09.699Z,1.00
2023-01-06T09:10:55.165Z,0.90
2023-01-06T09:13:40.868Z,0.90
2023-01-06T09:16:26.258Z,0.88
2023-01-06T09:19:11.478Z,1.15
2023-01-06T09:21:56.758Z,1.00
2023-01-06T09:24:42.103Z,0.80
2023-01-06T09:27:27.385Z,0.80
2023-01-06T09:30:13.292Z,0.90
2023-01-06T09:32:58.290Z,1.05
2023-01-06T09:35:44.624Z,0.80
2023-01-06T09:38:29.980Z,0.85
2023-01-06T09:41:53.852Z,0.90
2023-01-06T09:44:54.990Z,0.90
2023-01-06T09:47:47.515Z,1.08
2023-01-06T09:50:45.736Z,0.90
2023-01-06T09:53:37.688Z,0.88
2023-01-06T09:56:25.237Z,0.90
2023-01-06T09:59:35.379Z,0.82
2023-01-06T10:02:47.005Z,1.00
2023-01-06T10:05:38.390Z,0.90
2023-01-06T10:08:39.094Z,0.70
2023-01-06T10:11:55.734Z,0.70
2023-01-06T10:15:05.332Z,1.00
2023-01-06T10:18:09.733Z,0.90
2023-01-06T10:21:33.519Z,0.80
2023-01-06T10:24:25.236Z,1.00
2023-01-06T10:27:26.693Z,1.17
2023-01-06T10:30:30.188Z,0.70
2023-01-06T10:33:31.104Z,0.90
2023-01-06T10:36:20.687Z,1.27
2023-01-06T10:39:20.926Z,0.70
2023-01-06T10:42:38.699Z,0.90
2023-01-06T10:45:47.854Z,0.75
2023-01-06T10:48:34.519Z,0.70
2023-01-06T10:51:37.812Z,0.80
2023-01-06T10:54:27.813Z,0.80
2023-01-06T10:57:21.936Z,0.70
2023-01-06T11:00:22.681Z,0.90
2023-01-06T11:03:32.481Z,1.05
2023-01-06T11:06:58.672Z,0.90
2023-01-06T11:09:45.191Z,0.80
2023-01-06T11:12:31.850Z,0.90
2023-01-06T11:15:22.414Z,0.90
2023-01-06T11:18:27.121Z,0.90
2023-01-06T11:21:14.356Z,3.17
2023-01-06T11:24:20.098Z,2.90
2023-01-06T11:27:19.220Z,4.97
2023-01-06T11:30:27.532Z,8.63
2023-01-06T11:33:23.418Z,10.30
2023-01-06T11:36:12.144Z,10.80
2023-01-06T11:38:59.013Z,11.52
2023-01-06T11:41:47.193Z,13.63
2023-01-06T11:44:32.290Z,13.98
2023-01-06T11:47:27.327Z,14.30
2023-01-06T11:50:19.929Z,12.53
2023-01-06T11:53:16.789Z,11.90
2023-01-06T11:56:07.498Z,12.20
2023-01-06T11:58:55.811Z,14.07
2023-01-06T12:01:52.622Z,10.15
2023-01-06T12:04:51.524Z,10.23
2023-01-06T12:07:46.751Z,10.85
2023-01-06T12:10:36.126Z,9.88
2023-01-06T12:13:21.652Z,11.85
2023-01-06T12:16:17.543Z,10.15
2023-01-06T12:19:10.013Z,10.87
2023-01-06T12:21:55.446Z,10.32
2023-01-06T12:24:41.042Z,11.02
2023-01-06T12:27:41.492Z,11.23
2023-01-06T12:30:31.074Z,11.10
2023-01-06T12:33:27.505Z,10.43
2023-01-06T12:36:21.963Z,11.05
2023-01-06T12:39:23.715Z,10.63
2023-01-06T12:42:29.519Z,10.85
2023-01-06T12:45:35.249Z,10.20
2023-01-06T12:48:39.255Z,9.90
2023-01-06T12:51:42.862Z,14.90
2023-01-06T12:54:34.505Z,15.73
2023-01-06T12:57:43.814Z,17.58
2023-01-06T13:00:39.670Z,18.02
2023-01-06T13:03:49.778Z,17.93
2023-01-06T13:07:04.524Z,17.73
2023-01-06T13:10:00.255Z,18.30
2023-01-06T13:13:07.093Z,18.10
2023-01-06T13:15:54.544Z,17.45
2023-01-06T13:18:58.464Z,17.67
2023-01-06T13:21:45.238Z,17.23
2023-01-06T13:24:49.208Z,17.85
2023-01-06T13:27:55.662Z,18.13
2023-01-06T13:31:08.446Z,17.73
2023-01-06T13:34:17.272Z,16.93
2023-01-06T13:37:35.508Z,17.80
2023-01-06T13:40:27.278Z,17.55
2023-01-06T13:43:22.728Z,17.25
2023-01-06T13:46:15.044Z,17.42
2023-01-06T13:49:04.032Z,16.67
2023-01-06T13:51:50.640Z,16.13
2023-01-06T13:54:42.114Z,16.80
2023-01-06T13:57:34.067Z,15.63
2023-01-06T14:00:28.437Z,15.52
2023-01-06T14:03:21.475Z,15.60
2023-01-06T14:06:40.119Z,15.68
2023-01-06T14:09:26.815Z,15.70
2023-01-06T14:12:23.382Z,15.70
2023-01-06T14:15:21.961Z,14.57
2023-01-06T14:18:30.114Z,15.13
2023-01-06T14:21:31.440Z,15.18
2023-01-06T14:24:28.741Z,15.43
2023-01-06T14:27:14.439Z,14.90
2023-01-06T14:30:05.324Z,14.23
2023-01-06T14:32:50.276Z,13.70
2023-01-06T14:35:43.950Z,14.05
2023-01-06T14:38:36.507Z,14.30
2023-01-06T14:41:27.596Z,14.15
2023-01-06T14:44:18.292Z,13.13
2023-01-06T14:47:14.846Z,11.48
2023-01-06T14:50:06.330Z,12.17
2023-01-06T14:53:01.024Z,12.75
2023-01-06T14:55:48.942Z,12.90
2023-01-06T14:58:37.302Z,11.93
2023-01-06T15:01:32.452Z,12.88
2023-01-06T15:04:27.912Z,12.27
2023-01-06T15:07:21.790Z,11.65
2023-01-06T15:10:21.476Z,12.25
2023-01-06T15:13:23.737Z,11.80
2023-01-06T15:16:31.172Z,11.23
2023-01-06T15:19:16.715Z,12.30
2023-01-06T15:22:07.527Z,10.52
2023-01-06T15:24:54.301Z,11.05
2023-01-06T15:27:48.168Z,11.43
2023-01-06T15:30:36.527Z,11.02
2023-01-06T15:33:24.149Z,10.67
2023-01-06T15:36:17.548Z,11.02
2023-01-06T15:39:04.694Z,11.00
2023-01-06T15:41:50.557Z,10.93
2023-01-06T15:44:37.519Z,10.88
2023-01-06T15:47:31.895Z,11.00
2023-01-06T15:50:20.084Z,10.48
2023-01-06T15:53:16.527Z,11.15
2023-01-06T15:56:04.034Z,10.88
2023-01-06T15:58:54.423Z,10.50
2023-01-06T16:01:48.140Z,11.00
2023-01-06T16:04:33.571Z,9.95
2023-01-06T16:07:32.627Z,10.82
2023-01-06T16:10:38.335Z,9.48
2023-01-06T16:13:32.441Z,9.50
2023-01-06T16:16:17.489Z,9.90
2023-01-06T16:19:22.815Z,9.82
2023-01-06T16:22:40.946Z,9.52
2023-01-06T16:25:32.338Z,9.60
2023-01-06T16:28:21.549Z,9.27
2023-01-06T16:31:10.973Z,9.00
2023-01-06T16:34:14.035Z,9.13
2023-01-06T16:37:00.967Z,9.65
2023-01-06T16:39:46.444Z,9.52
2023-01-06T16:42:39.655Z,9.27
2023-01-06T16:45:32.901Z,9.80
2023-01-06T16:48:17.953Z,9.35
2023-01-06T16:51:08.870Z,9.10
2023-01-06T16:53:54.420Z,9.10
2023-01-06T16:56:39.662Z,9.13
2023-01-06T16:59:28.004Z,8.97
2023-01-06T17:02:16.083Z,7.82
2023-01-06T17:05:03.081Z,8.05
2023-01-06T17:07:50.122Z,8.10
2023-01-06T17:10:35.287Z,8.23
2023-01-06T17:13:35.726Z,8.80
2023-01-06T17:16:30.913Z,7.75
2023-01-06T17:19:28.049Z,7.75
2023-01-06T17:22:26.269Z,7.82
2023-01-06T17:25:13.875Z,8.02
2023-01-06T17:27:59.257Z,7.90
2023-01-06T17:30:44.907Z,8.30
2023-01-06T17:33:30.474Z,7.80
2023-01-06T17:36:35.297Z,7.40
2023-01-06T17:39:26.755Z,7.43
2023-01-06T17:42:36.012Z,7.13
2023-01-06T17:45:26.938Z,7.20
2023-01-06T17:48:14.126Z,7.50
2023-01-06T17:50:59.587Z,7.13
2023-01-06T17:54:03.462Z,7.35
2023-01-06T17:56:48.721Z,6.97
2023-01-06T17:59:34.071Z,7.38
2023-01-06T18:02:42.654Z,5.80
2023-01-06T18:05:27.828Z,5.45
2023-01-06T18:08:17.279Z,5.55
2023-01-06T18:11:12.003Z,5.93
2023-01-06T18:14:12.170Z,5.95
2023-01-06T18:17:01.480Z,5.38
2023-01-06T18:19:46.964Z,4.78
2023-01-06T18:22:33.801Z,4.40
2023-01-06T18:25:24.100Z,4.77
2023-01-06T18:28:17.814Z,4.65
2023-01-06T18:31:03.465Z,4.78
2023-01-06T18:33:50.553Z,4.35
2023-01-06T18:36:35.799Z,4.65
2023-01-06T18:39:30.678Z,4.47
2023-01-06T18:42:26.362Z,4.80
2023-01-06T18:45:11.186Z,4.70
2023-01-06T18:48:17.470Z,4.75
2023-01-06T18:51:06.376Z,4.80
2023-01-06T18:53:52.440Z,4.87
2023-01-06T18:56:39.008Z,4.88
2023-01-06T18:59:28.640Z,4.55
2023-01-06T19:02:30.943Z,4.68
2023-01-06T19:05:16.139Z,4.20
2023-01-06T19:08:12.700Z,4.50
2023-01-06T19:10:57.828Z,4.40
2023-01-06T19:13:45.288Z,4.53
2023-01-06T19:16:48.922Z,4.53
2023-01-06T19:19:39.654Z,4.65
2023-01-06T19:22:27.279Z,4.17
2023-01-06T19:25:34.829Z,4.30
2023-01-06T19:28:23.730Z,4.55
2023-01-06T19:31:18.950Z,4.50
2023-01-06T19:34:06.049Z,4.47
2023-01-06T19:36:59.500Z,4.20
2023-01-06T19:39:48.711Z,4.55
2023-01-06T19:42:33.940Z,4.75
2023-01-06T19:45:31.211Z,4.30
2023-01-06T19:48:35.121Z,4.22
2023-01-06T19:51:34.073Z,4.33
2023-01-06T19:54:33.846Z,4.32
2023-01-06T19:57:28.071Z,4.35
2023-01-06T20:00:45.420Z,4.32
2023-01-06T20:03:37.386Z,4.03
2023-01-06T20:06:23.565Z,4.80
2023-01-06T20:09:09.643Z,4.03
2023-01-06T20:11:55.086Z,3.60
2023-01-06T20:17:40.136Z,3.90
2023-01-06T20:20:25.590Z,4.43
2023-01-06T20:23:19.035Z,3.78
2023-01-06T20:26:12.688Z,4.63
2023-01-06T20:28:59.209Z,3.80
2023-01-06T20:31:45.397Z,4.18
2023-01-06T20:34:31.024Z,3.93
2023-01-06T20:37:16.446Z,3.85
2023-01-06T20:40:04.756Z,3.83
2023-01-06T20:42:50.863Z,3.75
2023-01-06T20:45:36.198Z,4.20
2023-01-06T20:48:22.035Z,3.90
2023-01-06T20:51:08.311Z,4.10
2023-01-06T20:53:54.303Z,4.18
2023-01-06T20:56:42.221Z,4.50
2023-01-06T20:59:28.392Z,4.00
2023-01-06T21:02:14.813Z,3.60
2023-01-06T21:05:00.673Z,4.15
2023-01-06T21:07:46.053Z,4.07
2023-01-06T21:10:31.549Z,3.72
2023-01-06T21:13:17.062Z,4.00
2023-01-06T21:16:02.572Z,3.50
2023-01-06T21:18:48.755Z,3.85
2023-01-06T21:21:34.513Z,3.95
2023-01-06T21:24:19.931Z,3.88
2023-01-06T21:27:05.282Z,4.13
2023-01-06T21:29:50.780Z,3.83
2023-01-06T21:32:36.931Z,3.70
2023-01-06T21:35:22.829Z,3.83
2023-01-06T21:38:08.224Z,3.38
2023-01-06T21:41:13.725Z,3.97
2023-01-06T21:43:59.106Z,4.07
2023-01-06T21:46:44.651Z,3.85
2023-01-06T21:49:30.945Z,3.88
2023-01-06T21:52:17.150Z,4.07
2023-01-06T21:55:02.594Z,3.40
2023-01-06T21:57:48.669Z,3.50
2023-01-06T22:00:34.086Z,3.70
2023-01-06T22:03:19.719Z,3.80
2023-01-06T22:06:06.527Z,3.80
2023-01-06T22:08:54.128Z,3.88
2023-01-06T22:11:40.800Z,3.57
2023-01-06T22:14:26.384Z,4.05
2023-01-06T22:17:12.620Z,3.80
2023-01-06T22:19:58.126Z,3.30
2023-01-06T22:22:44.232Z,3.10
2023-01-06T22:25:30.264Z,3.13
2023-01-06T22:28:15.694Z,2.90
2023-01-06T22:31:28.302Z,3.20
2023-01-06T22:34:36.617Z,3.22
2023-01-06T22:37:30.677Z,3.10
2023-01-06T22:40:16.178Z,3.27
2023-01-06T22:43:04.742Z,3.10
2023-01-06T22:45:55.236Z,3.22
2023-01-06T22:48:40.860Z,3.17
2023-01-06T22:51:28.556Z,3.13
2023-01-06T22:54:14.533Z,3.10
2023-01-06T22:58:15.059Z,2.88
2023-01-06T23:01:01.315Z,2.97
2023-01-06T23:03:47.087Z,3.08
2023-01-06T23:06:34.147Z,3.13
2023-01-06T23:09:20.008Z,3.00
2023-01-06T23:12:05.993Z,3.13
2023-01-06T23:14:51.492Z,3.08
2023-01-06T23:17:41.969Z,3.20
2023-01-06T23:20:40.710Z,2.70
2023-01-06T23:23:31.927Z,3.30
2023-01-06T23:26:38.923Z,2.60
2023-01-06T23:29:26.948Z,3.20
2023-01-06T23:36:05.575Z,3.00
2023-01-06T23:39:04.791Z,3.07
2023-01-06T23:41:50.598Z,2.97
2023-01-06T23:44:35.738Z,2.92
2023-01-06T23:47:21.301Z,2.75
2023-01-06T23:50:07.397Z,3.10
2023-01-06T23:52:54.789Z,2.80
2023-01-06T23:55:40.212Z,3.40
2023-01-06T23:58:26.895Z,2.70
